createdAt,value
2023-03-28T00:02:15.765Z,100.00
2023-03-28T00:04:44.325Z,100.00
2023-03-28T00:07:13.131Z,100.00
2023-03-28T00:09:41.754Z,100.00
2023-03-28T00:12:10.053Z,100.00
2023-03-28T00:14:39.736Z,100.00
2023-03-28T00:17:08.756Z,100.00
2023-03-28T00:19:40.814Z,100.00
2023-03-28T00:22:11.522Z,100.00
2023-03-28T00:24:41.088Z,100.00
2023-03-28T00:27:09.621Z,100.00
2023-03-28T00:29:39.297Z,100.00
2023-03-28T00:32:07.656Z,100.00
2023-03-28T00:34:37.235Z,100.00
2023-03-28T00:37:05.580Z,100.00
2023-03-28T00:39:34.653Z,100.00
2023-03-28T00:42:04.184Z,100.00
2023-03-28T00:44:45.947Z,100.00
2023-03-28T00:47:26.027Z,100.00
2023-03-28T00:49:57.454Z,100.00
2023-03-28T00:52:30.838Z,100.00
2023-03-28T00:55:00.981Z,100.00
2023-03-28T00:57:30.171Z,100.00
2023-03-28T01:00:00.095Z,100.00
2023-03-28T01:02:28.654Z,100.00
2023-03-28T01:05:00.936Z,100.00
2023-03-28T01:07:35.454Z,100.00
2023-03-28T01:10:05.293Z,100.00
2023-03-28T01:12:34.629Z,100.00
2023-03-28T01:15:05.199Z,100.00
2023-03-28T01:17:33.695Z,100.00
2023-03-28T01:20:13.832Z,100.00
2023-03-28T01:23:12.566Z,100.00
2023-03-28T01:26:33.986Z,100.00
2023-03-28T01:29:32.708Z,100.00
2023-03-28T01:32:25.654Z,100.00
2023-03-28T01:35:20.996Z,100.00
2023-03-28T01:37:59.714Z,100.00
2023-03-28T01:40:39.521Z,100.00
2023-03-28T01:43:23.917Z,100.00
2023-03-28T01:45:59.771Z,100.00
2023-03-28T01:48:39.490Z,100.00
2023-03-28T01:51:14.414Z,100.00
2023-03-28T01:53:48.431Z,100.00
2023-03-28T01:56:24.242Z,100.00
2023-03-28T01:58:59.837Z,100.00
2023-03-28T02:01:36.855Z,100.00
2023-03-28T02:04:20.733Z,100.00
2023-03-28T02:06:53.023Z,100.00
2023-03-28T02:09:26.171Z,100.00
2023-03-28T02:11:58.935Z,100.00
2023-03-28T02:14:32.233Z,100.00
2023-03-28T02:17:05.880Z,100.00
2023-03-28T02:19:37.902Z,100.00
2023-03-28T02:22:14.099Z,100.00
2023-03-28T02:24:43.887Z,100.00
2023-03-28T02:27:12.392Z,100.00
2023-03-28T02:29:40.701Z,100.00
2023-03-28T02:32:09.312Z,100.00
2023-03-28T02:34:38.162Z,100.00
2023-03-28T02:37:16.404Z,100.00
2023-03-28T02:39:52.497Z,100.00
2023-03-28T02:42:50.481Z,100.00
2023-03-28T02:45:43.703Z,100.00
2023-03-28T02:48:26.582Z,99.80
2023-03-28T02:51:06.405Z,100.00
2023-03-28T02:53:44.856Z,100.00
2023-03-28T02:56:20.473Z,100.00
2023-03-28T02:58:54.801Z,100.00
2023-03-28T03:01:25.671Z,100.00
2023-03-28T03:03:57.884Z,100.00
2023-03-28T03:06:26.636Z,100.00
2023-03-28T03:08:54.869Z,100.00
2023-03-28T03:11:28.114Z,100.00
2023-03-28T03:13:57.555Z,100.00
2023-03-28T03:16:25.960Z,100.00
2023-03-28T03:18:54.371Z,100.00
2023-03-28T03:21:23.935Z,100.00
2023-03-28T03:23:52.342Z,100.00
2023-03-28T03:26:20.829Z,100.00
2023-03-28T03:28:50.766Z,99.80
2023-03-28T03:31:19.751Z,99.83
2023-03-28T03:33:48.292Z,98.86
2023-03-28T03:36:17.953Z,99.25
2023-03-28T03:38:47.674Z,97.60
2023-03-28T03:41:15.940Z,97.18
2023-03-28T03:43:46.635Z,95.46
2023-03-28T03:46:16.941Z,93.83
2023-03-28T03:48:49.226Z,95.65
2023-03-28T03:51:18.557Z,93.38
2023-03-28T03:53:46.908Z,93.43
2023-03-28T03:56:15.344Z,93.56
2023-03-28T03:58:43.628Z,93.39
2023-03-28T04:01:14.375Z,93.42
2023-03-28T04:03:44.480Z,93.73
2023-03-28T04:06:12.805Z,92.54
2023-03-28T04:08:41.393Z,91.86
2023-03-28T04:11:10.700Z,92.75
2023-03-28T04:13:39.188Z,91.48
2023-03-28T04:16:08.427Z,92.10
2023-03-28T04:18:36.864Z,90.45
2023-03-28T04:21:09.831Z,90.98
2023-03-28T04:23:43.781Z,90.32
2023-03-28T04:26:25.975Z,89.82
2023-03-28T04:28:55.058Z,90.33
2023-03-28T04:31:29.941Z,90.64
2023-03-28T04:34:00.499Z,89.43
2023-03-28T04:36:31.542Z,90.22
2023-03-28T04:39:02.633Z,90.08
2023-03-28T04:41:32.353Z,88.92
2023-03-28T04:44:01.332Z,87.98
2023-03-28T04:46:29.901Z,88.24
2023-03-28T04:48:58.193Z,89.20
2023-03-28T04:51:28.703Z,89.81
2023-03-28T04:53:58.508Z,89.28
2023-03-28T04:56:27.238Z,88.62
2023-03-28T04:58:55.941Z,88.37
2023-03-28T05:01:26.948Z,88.78
2023-03-28T05:03:55.623Z,87.41
2023-03-28T05:06:26.008Z,87.48
2023-03-28T05:08:54.348Z,87.55
2023-03-28T05:11:24.475Z,87.08
2023-03-28T05:13:52.937Z,86.53
2023-03-28T05:16:21.271Z,85.87
2023-03-28T05:18:49.858Z,85.56
2023-03-28T05:21:18.169Z,85.03
2023-03-28T05:23:51.792Z,85.98
2023-03-28T05:26:21.167Z,84.98
2023-03-28T05:28:51.331Z,83.82
2023-03-28T05:31:19.651Z,81.48
2023-03-28T05:33:47.937Z,74.67
2023-03-28T05:36:16.391Z,66.61
2023-03-28T05:38:44.804Z,61.46
2023-03-28T05:41:13.109Z,61.21
2023-03-28T05:43:41.374Z,60.75
2023-03-28T05:46:11.246Z,59.72
2023-03-28T05:48:39.956Z,59.34
2023-03-28T05:51:08.770Z,59.69
2023-03-28T05:53:37.045Z,60.36
2023-03-28T05:56:05.982Z,61.90
2023-03-28T05:58:34.496Z,65.52
2023-03-28T06:01:04.595Z,68.47
2023-03-28T06:03:34.340Z,69.54
2023-03-28T06:06:02.572Z,70.58
2023-03-28T06:08:32.142Z,70.41
2023-03-28T06:11:02.666Z,71.64
2023-03-28T06:13:31.593Z,74.16
2023-03-28T06:16:00.038Z,73.93
2023-03-28T06:18:28.316Z,70.32
2023-03-28T06:20:58.363Z,70.08
2023-03-28T06:23:26.971Z,68.71
2023-03-28T06:25:55.283Z,67.16
2023-03-28T06:28:23.591Z,65.35
2023-03-28T06:30:52.107Z,61.56
2023-03-28T06:33:21.584Z,59.74
2023-03-28T06:35:49.914Z,59.57
2023-03-28T06:38:19.663Z,55.66
2023-03-28T06:40:48.031Z,55.51
2023-03-28T06:43:16.340Z,55.37
2023-03-28T06:45:44.802Z,56.75
2023-03-28T06:48:13.021Z,56.86
2023-03-28T06:50:41.351Z,56.55
2023-03-28T06:53:09.670Z,54.87
2023-03-28T06:55:39.396Z,53.24
2023-03-28T06:58:08.112Z,52.52
2023-03-28T07:00:36.652Z,53.28
2023-03-28T07:03:05.238Z,56.16
2023-03-28T07:05:33.548Z,56.72
2023-03-28T07:08:01.884Z,56.98
2023-03-28T07:10:30.525Z,59.16
2023-03-28T07:13:00.265Z,62.70
2023-03-28T07:15:28.849Z,62.71
2023-03-28T07:17:57.244Z,64.09
2023-03-28T07:20:26.334Z,62.58
2023-03-28T07:22:54.717Z,63.18
2023-03-28T07:25:23.330Z,65.42
2023-03-28T07:27:51.726Z,64.29
2023-03-28T07:30:21.583Z,63.52
2023-03-28T07:32:56.752Z,63.87
2023-03-28T07:35:28.277Z,64.28
2023-03-28T07:37:57.554Z,63.92
2023-03-28T07:40:25.794Z,64.46
2023-03-28T07:42:54.102Z,62.28
2023-03-28T07:45:23.773Z,63.71
2023-03-28T07:47:52.153Z,62.65
2023-03-28T07:50:22.374Z,62.85
2023-03-28T07:52:57.622Z,61.73
2023-03-28T07:55:26.704Z,63.43
2023-03-28T07:57:55.672Z,63.91
2023-03-28T08:00:25.600Z,64.45
2023-03-28T08:02:53.850Z,65.49
2023-03-28T08:05:24.232Z,66.63
2023-03-28T08:07:53.914Z,66.41
2023-03-28T08:10:22.156Z,65.52
2023-03-28T08:12:50.411Z,64.25
2023-03-28T08:15:18.750Z,65.23
2023-03-28T08:17:48.636Z,64.42
2023-03-28T08:20:21.705Z,64.26
2023-03-28T08:22:50.809Z,65.21
2023-03-28T08:25:19.501Z,64.10
2023-03-28T08:27:47.867Z,63.85
2023-03-28T08:30:16.211Z,64.14
2023-03-28T08:32:46.269Z,63.50
2023-03-28T08:35:18.022Z,62.76
2023-03-28T08:37:46.406Z,63.30
2023-03-28T08:40:17.992Z,63.59
2023-03-28T08:42:58.466Z,63.81
2023-03-28T08:45:39.239Z,64.71
2023-03-28T08:48:17.113Z,64.00
2023-03-28T08:50:49.184Z,63.24
2023-03-28T08:53:26.511Z,63.48
2023-03-28T08:55:57.644Z,62.30
2023-03-28T08:58:31.801Z,62.42
2023-03-28T09:01:00.287Z,63.37
2023-03-28T09:03:29.019Z,64.01
2023-03-28T09:06:05.764Z,63.46
2023-03-28T09:08:43.022Z,64.55
2023-03-28T09:11:26.375Z,63.85
2023-03-28T09:14:08.188Z,63.89
2023-03-28T09:16:49.579Z,64.08
2023-03-28T09:19:37.075Z,64.30
2023-03-28T09:22:25.792Z,64.44
2023-03-28T09:25:08.580Z,64.53
2023-03-28T09:27:49.984Z,64.17
2023-03-28T09:30:20.840Z,62.21
2023-03-28T09:32:50.969Z,63.65
2023-03-28T09:35:21.509Z,63.44
2023-03-28T09:37:54.549Z,63.04
2023-03-28T09:40:25.166Z,61.07
2023-03-28T09:43:06.282Z,61.02
2023-03-28T09:45:44.665Z,61.68
2023-03-28T09:48:20.516Z,61.66
2023-03-28T09:50:48.984Z,61.26
2023-03-28T09:53:23.718Z,61.95
2023-03-28T09:56:03.441Z,62.19
2023-03-28T09:58:50.120Z,62.69
2023-03-28T10:01:28.485Z,62.03
2023-03-28T10:03:57.422Z,62.89
2023-03-28T10:06:27.972Z,63.24
2023-03-28T10:09:16.756Z,64.13
2023-03-28T10:11:55.507Z,63.64
2023-03-28T10:14:32.835Z,63.21
2023-03-28T10:17:03.990Z,63.78
2023-03-28T10:19:35.102Z,63.75
2023-03-28T10:22:07.513Z,64.01
2023-03-28T10:24:37.875Z,63.60
2023-03-28T10:27:17.623Z,63.36
2023-03-28T10:29:47.902Z,64.50
2023-03-28T10:32:26.786Z,64.66
2023-03-28T10:35:03.531Z,65.01
2023-03-28T10:37:33.553Z,65.73
2023-03-28T10:40:08.083Z,66.73
2023-03-28T10:42:44.058Z,67.13
2023-03-28T10:45:24.043Z,67.34
2023-03-28T10:47:57.920Z,69.58
2023-03-28T10:50:34.744Z,68.56
2023-03-28T10:53:22.282Z,69.39
2023-03-28T10:56:03.870Z,69.12
2023-03-28T10:58:36.502Z,70.23
2023-03-28T11:01:11.308Z,70.38
2023-03-28T11:03:57.292Z,69.71
2023-03-28T11:06:35.029Z,68.87
2023-03-28T11:09:16.637Z,69.79
2023-03-28T11:11:58.447Z,68.90
2023-03-28T11:14:38.176Z,69.08
2023-03-28T11:17:13.682Z,71.17
2023-03-28T11:19:59.376Z,69.93
2023-03-28T11:22:39.507Z,69.62
2023-03-28T11:25:22.070Z,70.95
2023-03-28T11:27:59.059Z,70.42
2023-03-28T11:30:33.198Z,70.89
2023-03-28T11:33:09.328Z,69.94
2023-03-28T11:35:42.074Z,69.68
2023-03-28T11:38:15.486Z,70.50
2023-03-28T11:40:52.297Z,70.41
2023-03-28T11:43:33.140Z,70.65
2023-03-28T11:46:07.863Z,70.42
2023-03-28T11:48:43.800Z,69.10
2023-03-28T11:51:17.366Z,68.10
2023-03-28T11:53:53.772Z,68.28
2023-03-28T11:56:33.230Z,68.39
2023-03-28T11:59:07.877Z,68.55
2023-03-28T12:01:41.584Z,68.63
2023-03-28T12:04:15.577Z,69.28
2023-03-28T12:07:02.367Z,69.60
2023-03-28T12:09:37.770Z,70.38
2023-03-28T12:12:14.208Z,70.20
2023-03-28T12:14:54.254Z,71.50
2023-03-28T12:17:27.233Z,71.39
2023-03-28T12:19:56.931Z,71.58
2023-03-28T12:22:30.593Z,72.42
2023-03-28T12:25:09.111Z,73.34
2023-03-28T12:27:52.378Z,73.65
2023-03-28T12:30:27.888Z,74.23
2023-03-28T12:33:06.816Z,74.75
2023-03-28T12:35:43.109Z,75.15
2023-03-28T12:38:22.600Z,76.24
2023-03-28T12:40:56.326Z,76.59
2023-03-28T12:43:30.739Z,79.69
2023-03-28T12:46:03.840Z,79.90
2023-03-28T12:48:36.938Z,80.45
2023-03-28T12:51:15.481Z,81.54
2023-03-28T12:54:01.669Z,82.70
2023-03-28T12:56:30.556Z,83.60
2023-03-28T12:59:00.120Z,83.99
2023-03-28T13:01:45.905Z,83.02
2023-03-28T13:04:29.961Z,83.27
2023-03-28T13:07:08.890Z,83.22
2023-03-28T13:10:04.685Z,84.41
2023-03-28T13:12:57.192Z,85.28
2023-03-28T13:15:28.668Z,84.65
2023-03-28T13:18:31.802Z,82.42
2023-03-28T13:21:04.455Z,83.05
2023-03-28T13:24:00.889Z,84.03
2023-03-28T13:26:59.712Z,83.46
2023-03-28T13:29:47.208Z,84.70
2023-03-28T13:32:17.763Z,88.45
2023-03-28T13:34:53.930Z,92.31
2023-03-28T13:37:24.785Z,93.63
2023-03-28T13:39:55.735Z,100.00
2023-03-28T13:42:28.957Z,100.00
2023-03-28T13:45:01.329Z,100.00
2023-03-28T13:47:35.454Z,100.00
2023-03-28T13:50:17.330Z,100.00
2023-03-28T13:52:46.185Z,100.00
2023-03-28T13:55:22.657Z,100.00
2023-03-28T13:57:55.454Z,100.00
2023-03-28T14:00:27.136Z,100.00
2023-03-28T14:03:02.507Z,100.00
2023-03-28T14:05:34.007Z,100.00
2023-03-28T14:08:22.422Z,100.00
2023-03-28T14:10:52.544Z,100.00
2023-03-28T14:13:25.564Z,100.00
2023-03-28T14:15:57.193Z,100.00
2023-03-28T14:18:34.018Z,100.00
2023-03-28T14:21:06.863Z,100.00
2023-03-28T14:23:38.191Z,100.00
2023-03-28T14:26:10.399Z,100.00
2023-03-28T14:28:42.745Z,100.00
2023-03-28T14:31:14.998Z,100.00
2023-03-28T14:33:47.440Z,100.00
2023-03-28T14:36:18.998Z,100.00
2023-03-28T14:38:47.438Z,100.00
2023-03-28T14:41:19.423Z,100.00
2023-03-28T14:43:51.761Z,100.00
2023-03-28T14:46:25.532Z,100.00
2023-03-28T14:48:56.631Z,100.00
2023-03-28T14:51:28.322Z,100.00
2023-03-28T14:53:58.470Z,100.00
2023-03-28T14:56:29.459Z,100.00
2023-03-28T14:59:01.591Z,100.00
2023-03-28T15:01:33.986Z,100.00
2023-03-28T15:04:06.707Z,100.00
2023-03-28T15:06:39.408Z,100.00
2023-03-28T15:09:13.020Z,100.00
2023-03-28T15:11:44.759Z,100.00
2023-03-28T15:14:17.386Z,100.00
2023-03-28T15:16:48.146Z,100.00
2023-03-28T15:19:22.477Z,100.00
2023-03-28T15:21:57.522Z,100.00
2023-03-28T15:24:27.901Z,100.00
2023-03-28T15:26:59.260Z,100.00
2023-03-28T15:29:28.558Z,100.00
2023-03-28T15:32:02.917Z,100.00
2023-03-28T15:34:33.243Z,100.00
2023-03-28T15:37:05.257Z,100.00
2023-03-28T15:39:35.406Z,100.00
2023-03-28T15:42:37.263Z,100.00
2023-03-28T15:45:47.179Z,100.00
2023-03-28T15:48:19.893Z,100.00
2023-03-28T15:50:53.258Z,100.00
2023-03-28T15:53:27.374Z,100.00
2023-03-28T15:55:56.590Z,100.00
2023-03-28T15:58:25.113Z,100.00
2023-03-28T16:00:54.879Z,100.00
2023-03-28T16:03:34.813Z,100.00
2023-03-28T16:06:26.687Z,100.00
2023-03-28T16:09:15.959Z,100.00
2023-03-28T16:11:45.791Z,100.00
2023-03-28T16:14:18.251Z,100.00
2023-03-28T16:16:49.309Z,100.00
2023-03-28T16:19:26.997Z,100.00
2023-03-28T16:21:56.276Z,100.00
2023-03-28T16:24:27.303Z,100.00
2023-03-28T16:26:56.416Z,100.00
2023-03-28T16:29:24.896Z,100.00
2023-03-28T16:31:53.409Z,100.00
2023-03-28T16:34:21.926Z,100.00
2023-03-28T16:36:50.213Z,100.00
2023-03-28T16:39:18.745Z,100.00
2023-03-28T16:41:48.707Z,100.00
2023-03-28T16:44:17.277Z,100.00
2023-03-28T16:46:45.645Z,100.00
2023-03-28T16:49:14.144Z,100.00
2023-03-28T16:51:43.738Z,100.00
2023-03-28T16:54:12.024Z,100.00
2023-03-28T16:56:40.678Z,100.00
2023-03-28T16:59:11.159Z,100.00
2023-03-28T17:01:41.418Z,100.00
2023-03-28T17:04:09.773Z,100.00
2023-03-28T17:06:38.071Z,100.00
2023-03-28T17:09:06.814Z,100.00
2023-03-28T17:11:42.903Z,100.00
2023-03-28T17:14:12.554Z,100.00
2023-03-28T17:16:40.822Z,100.00
2023-03-28T17:19:09.440Z,100.00
2023-03-28T17:21:37.873Z,100.00
2023-03-28T17:24:11.332Z,100.00
2023-03-28T17:26:40.422Z,100.00
2023-03-28T17:29:10.242Z,100.00
2023-03-28T17:31:41.273Z,100.00
2023-03-28T17:34:09.913Z,100.00
2023-03-28T17:36:41.197Z,100.00
2023-03-28T17:39:10.193Z,100.00
2023-03-28T17:41:38.854Z,100.00
2023-03-28T17:44:09.003Z,100.00
2023-03-28T17:46:39.055Z,100.00
2023-03-28T17:49:09.173Z,100.00
2023-03-28T17:51:37.800Z,100.00
2023-03-28T17:54:12.067Z,100.00
2023-03-28T17:56:40.512Z,100.00
2023-03-28T17:59:08.871Z,99.24
2023-03-28T18:01:37.062Z,99.46
2023-03-28T18:04:05.285Z,99.70
2023-03-28T18:06:35.322Z,100.00
2023-03-28T18:09:04.350Z,100.00
2023-03-28T18:11:32.544Z,100.00
2023-03-28T18:14:00.772Z,100.00
2023-03-28T18:16:29.243Z,100.00
2023-03-28T18:18:57.799Z,100.00
2023-03-28T18:21:26.215Z,100.00
2023-03-28T18:23:56.134Z,100.00
2023-03-28T18:26:24.508Z,100.00
2023-03-28T18:28:52.921Z,100.00
2023-03-28T18:31:28.264Z,100.00
2023-03-28T18:33:57.890Z,100.00
2023-03-28T18:36:26.850Z,100.00
2023-03-28T18:38:57.257Z,100.00
2023-03-28T18:41:27.617Z,100.00
2023-03-28T18:43:56.561Z,100.00
2023-03-28T18:46:26.246Z,100.00
2023-03-28T18:48:55.226Z,100.00
2023-03-28T18:51:24.694Z,100.00
2023-03-28T18:53:54.052Z,100.00
2023-03-28T18:56:24.666Z,100.00
2023-03-28T18:58:53.630Z,100.00
2023-03-28T19:01:23.353Z,100.00
2023-03-28T19:03:52.512Z,100.00
2023-03-28T19:06:21.815Z,100.00
2023-03-28T19:08:51.778Z,100.00
2023-03-28T19:11:20.442Z,100.00
2023-03-28T19:13:51.574Z,100.00
2023-03-28T19:16:23.615Z,100.00
2023-03-28T19:18:52.314Z,100.00
2023-03-28T19:21:20.995Z,100.00
2023-03-28T19:23:50.821Z,100.00
2023-03-28T19:26:20.169Z,100.00
2023-03-28T19:28:50.868Z,100.00
2023-03-28T19:31:22.861Z,100.00
2023-03-28T19:33:51.462Z,100.00
2023-03-28T19:36:20.176Z,100.00
2023-03-28T19:38:49.044Z,100.00
2023-03-28T19:41:20.308Z,100.00
2023-03-28T19:43:51.353Z,100.00
2023-03-28T19:46:24.841Z,100.00
2023-03-28T19:48:56.971Z,100.00
2023-03-28T19:51:26.029Z,100.00
2023-03-28T19:53:54.868Z,100.00
2023-03-28T19:56:24.592Z,100.00
2023-03-28T19:58:54.777Z,100.00
2023-03-28T20:01:23.453Z,100.00
2023-03-28T20:03:53.427Z,100.00
2023-03-28T20:06:23.598Z,100.00
2023-03-28T20:08:54.358Z,100.00
2023-03-28T20:11:23.284Z,100.00
2023-03-28T20:13:53.686Z,100.00
2023-03-28T20:16:22.348Z,100.00
2023-03-28T20:18:51.036Z,100.00
2023-03-28T20:21:19.788Z,100.00
2023-03-28T20:23:48.528Z,100.00
2023-03-28T20:26:19.510Z,100.00
2023-03-28T20:28:50.403Z,100.00
2023-03-28T20:31:20.851Z,100.00
2023-03-28T20:33:49.523Z,100.00
2023-03-28T20:36:18.135Z,99.42
2023-03-28T20:38:49.251Z,96.99
2023-03-28T20:41:19.249Z,97.56
2023-03-28T20:43:48.158Z,97.77
2023-03-28T20:46:19.854Z,96.82
2023-03-28T20:48:52.606Z,98.30
2023-03-28T20:51:23.008Z,98.55
2023-03-28T20:53:54.586Z,98.99
2023-03-28T20:56:25.005Z,99.98
2023-03-28T20:58:55.645Z,99.25
2023-03-28T21:01:28.467Z,100.00
2023-03-28T21:04:00.573Z,100.00
2023-03-28T21:06:30.755Z,100.00
2023-03-28T21:09:00.931Z,100.00
2023-03-28T21:11:32.084Z,100.00
2023-03-28T21:14:01.328Z,100.00
2023-03-28T21:16:31.106Z,100.00
2023-03-28T21:19:02.653Z,100.00
2023-03-28T21:21:33.358Z,100.00
2023-03-28T21:24:02.328Z,100.00
2023-03-28T21:26:31.525Z,100.00
2023-03-28T21:29:00.213Z,91.83
2023-03-28T21:31:30.245Z,91.19
2023-03-28T21:34:01.093Z,86.14
2023-03-28T21:36:29.746Z,73.42
2023-03-28T21:38:59.153Z,79.32
2023-03-28T21:41:28.828Z,83.48
2023-03-28T21:43:58.800Z,86.11
2023-03-28T21:46:27.302Z,87.77
2023-03-28T21:48:56.017Z,89.27
2023-03-28T21:51:26.082Z,91.51
2023-03-28T21:53:54.660Z,94.07
2023-03-28T21:56:23.213Z,95.02
2023-03-28T21:58:52.127Z,96.57
2023-03-28T22:01:21.591Z,97.59
2023-03-28T22:03:50.685Z,96.42
2023-03-28T22:06:19.858Z,95.63
2023-03-28T22:08:52.612Z,94.75
2023-03-28T22:11:28.149Z,93.34
2023-03-28T22:14:01.521Z,90.62
2023-03-28T22:16:34.708Z,86.76
2023-03-28T22:19:03.720Z,84.41
2023-03-28T22:21:32.470Z,83.85
2023-03-28T22:24:04.479Z,84.05
2023-03-28T22:26:32.921Z,84.29
2023-03-28T22:29:01.715Z,83.91
2023-03-28T22:31:31.003Z,83.70
2023-03-28T22:33:59.721Z,82.82
2023-03-28T22:36:28.385Z,82.47
2023-03-28T22:38:57.196Z,81.76
2023-03-28T22:41:32.086Z,81.83
2023-03-28T22:44:00.548Z,82.17
2023-03-28T22:46:28.963Z,82.12
2023-03-28T22:48:58.622Z,81.94
2023-03-28T22:51:28.193Z,78.36
2023-03-28T22:54:02.995Z,76.80
2023-03-28T22:56:33.762Z,74.30
2023-03-28T22:59:02.253Z,74.97
2023-03-28T23:01:30.703Z,76.85
2023-03-28T23:03:59.038Z,78.22
2023-03-28T23:06:27.322Z,79.28
2023-03-28T23:08:55.569Z,79.87
2023-03-28T23:11:23.940Z,80.27
2023-03-28T23:13:53.664Z,81.03
2023-03-28T23:16:22.152Z,81.51
2023-03-28T23:18:50.845Z,81.95
2023-03-28T23:21:19.140Z,82.20
2023-03-28T23:23:47.644Z,83.13
2023-03-28T23:26:16.793Z,83.08
2023-03-28T23:28:45.813Z,83.01
2023-03-28T23:31:15.805Z,82.65
2023-03-28T23:33:46.307Z,83.25
2023-03-28T23:36:15.363Z,83.09
2023-03-28T23:38:43.704Z,81.65
2023-03-28T23:41:12.577Z,79.60
2023-03-28T23:43:40.914Z,76.30
2023-03-28T23:46:09.385Z,73.74
2023-03-28T23:48:39.366Z,74.83
2023-03-28T23:51:09.121Z,75.29
2023-03-28T23:53:37.568Z,76.34
2023-03-28T23:56:06.787Z,76.58
2023-03-28T23:58:35.472Z,76.60
